createdAt,value
2023-01-26T00:00:00.395Z,100930
2023-01-26T00:01:06.043Z,100930
2023-01-26T00:02:00.576Z,100920
2023-01-26T00:03:00.452Z,100920
2023-01-26T00:04:00.418Z,100930
2023-01-26T00:05:00.380Z,100920
2023-01-26T00:06:05.314Z,100920
2023-01-26T00:07:00.518Z,100930
2023-01-26T00:08:00.363Z,100920
2023-01-26T00:09:00.561Z,100920
2023-01-26T00:10:00.364Z,100930
2023-01-26T00:11:03.251Z,100930
2023-01-26T00:12:00.375Z,100930
2023-01-26T00:13:00.387Z,100930
2023-01-26T00:14:00.398Z,100930
2023-01-26T00:15:00.402Z,100930
2023-01-26T00:16:01.285Z,100930
2023-01-26T00:17:00.385Z,100930
2023-01-26T00:18:01.932Z,100920
2023-01-26T00:19:00.889Z,100920
2023-01-26T00:20:00.384Z,100920
2023-01-26T00:21:01.441Z,100910
2023-01-26T00:22:00.383Z,100920
2023-01-26T00:23:00.549Z,100920
2023-01-26T00:24:00.558Z,100920
2023-01-26T00:25:00.452Z,100920
2023-01-26T00:26:01.072Z,100920
2023-01-26T00:27:00.381Z,100920
2023-01-26T00:28:00.388Z,100920
2023-01-26T00:29:00.431Z,100920
2023-01-26T00:30:00.472Z,100920
2023-01-26T00:31:05.283Z,100920
2023-01-26T00:32:00.364Z,100910
2023-01-26T00:33:00.376Z,100920
2023-01-26T00:34:00.387Z,100910
2023-01-26T00:35:00.469Z,100910
2023-01-26T00:36:00.415Z,100910
2023-01-26T00:37:00.400Z,100910
2023-01-26T00:38:00.404Z,100910
2023-01-26T00:39:00.398Z,100910
2023-01-26T00:40:00.379Z,100910
2023-01-26T00:41:00.998Z,100910
2023-01-26T00:42:00.454Z,100910
2023-01-26T00:43:00.382Z,100910
2023-01-26T00:44:00.703Z,100910
2023-01-26T00:45:03.086Z,100910
2023-01-26T00:46:00.413Z,100900
2023-01-26T00:47:01.119Z,100910
2023-01-26T00:48:00.422Z,100910
2023-01-26T00:49:00.432Z,100900
2023-01-26T00:50:00.395Z,100900
2023-01-26T00:51:00.377Z,100900
2023-01-26T00:52:00.973Z,100900
2023-01-26T00:53:00.387Z,100900
2023-01-26T00:54:00.387Z,100900
2023-01-26T00:55:00.405Z,100910
2023-01-26T00:56:00.357Z,100910
2023-01-26T00:57:00.546Z,100910
2023-01-26T00:58:03.093Z,100910
2023-01-26T00:59:00.424Z,100910
2023-01-26T01:00:00.475Z,100910
2023-01-26T01:01:00.408Z,100910
2023-01-26T01:02:00.435Z,100910
2023-01-26T01:03:00.741Z,100900
2023-01-26T01:04:00.392Z,100910
2023-01-26T01:05:00.392Z,100900
2023-01-26T01:06:00.373Z,100900
2023-01-26T01:07:00.399Z,100910
2023-01-26T01:08:01.297Z,100910
2023-01-26T01:09:00.394Z,100900
2023-01-26T01:10:00.491Z,100910
2023-01-26T01:11:02.361Z,100900
2023-01-26T01:12:00.381Z,100900
2023-01-26T01:13:00.394Z,100900
2023-01-26T01:14:01.691Z,100900
2023-01-26T01:15:00.830Z,100900
2023-01-26T01:16:03.554Z,100900
2023-01-26T01:17:00.382Z,100900
2023-01-26T01:18:00.411Z,100900
2023-01-26T01:19:00.529Z,100900
2023-01-26T01:20:00.360Z,100900
2023-01-26T01:21:04.197Z,100900
2023-01-26T01:22:00.384Z,100900
2023-01-26T01:23:00.389Z,100900
2023-01-26T01:24:00.603Z,100900
2023-01-26T01:25:01.048Z,100900
2023-01-26T01:26:01.211Z,100900
2023-01-26T01:27:00.794Z,100900
2023-01-26T01:28:00.375Z,100900
2023-01-26T01:29:00.546Z,100900
2023-01-26T01:30:00.440Z,100900
2023-01-26T01:31:10.545Z,100900
2023-01-26T01:32:00.584Z,100900
2023-01-26T01:33:00.390Z,100900
2023-01-26T01:34:00.437Z,100900
2023-01-26T01:35:00.478Z,100900
2023-01-26T01:36:03.761Z,100900
2023-01-26T01:37:00.408Z,100900
2023-01-26T01:38:00.452Z,100900
2023-01-26T01:39:00.399Z,100900
2023-01-26T01:40:00.432Z,100890
2023-01-26T01:41:00.463Z,100890
2023-01-26T01:42:00.372Z,100890
2023-01-26T01:43:00.382Z,100890
2023-01-26T01:44:18.765Z,100890
2023-01-26T01:45:20.275Z,100880
2023-01-26T01:46:06.300Z,100890
2023-01-26T01:47:05.339Z,100880
2023-01-26T01:48:03.432Z,100880
2023-01-26T01:49:04.313Z,100880
2023-01-26T01:50:00.439Z,100880
2023-01-26T01:51:06.875Z,100880
2023-01-26T01:52:04.672Z,100880
2023-01-26T01:53:00.536Z,100880
2023-01-26T01:54:05.020Z,100880
2023-01-26T01:55:04.270Z,100880
2023-01-26T01:56:05.796Z,100880
2023-01-26T01:57:05.197Z,100870
2023-01-26T01:58:02.312Z,100870
2023-01-26T01:59:01.947Z,100870
2023-01-26T02:00:06.234Z,100860
2023-01-26T02:01:00.426Z,100870
2023-01-26T02:02:00.516Z,100860
2023-01-26T02:03:06.595Z,100860
2023-01-26T02:04:04.204Z,100860
2023-01-26T02:05:09.541Z,100860
2023-01-26T02:06:05.815Z,100860
2023-01-26T02:07:00.475Z,100860
2023-01-26T02:08:02.193Z,100860
2023-01-26T02:09:02.658Z,100860
2023-01-26T02:10:01.313Z,100860
2023-01-26T02:11:06.460Z,100860
2023-01-26T02:12:03.666Z,100860
2023-01-26T02:13:01.356Z,100850
2023-01-26T02:14:05.569Z,100850
2023-01-26T02:15:00.572Z,100850
2023-01-26T02:16:00.488Z,100850
2023-01-26T02:17:00.394Z,100850
2023-01-26T02:18:03.428Z,100850
2023-01-26T02:19:00.904Z,100840
2023-01-26T02:20:06.876Z,100840
2023-01-26T02:21:03.340Z,100840
2023-01-26T02:22:09.786Z,100850
2023-01-26T02:23:07.688Z,100840
2023-01-26T02:24:06.136Z,100850
2023-01-26T02:25:06.490Z,100840
2023-01-26T02:26:03.805Z,100850
2023-01-26T02:27:00.862Z,100840
2023-01-26T02:28:00.776Z,100840
2023-01-26T02:29:02.757Z,100840
2023-01-26T02:30:02.749Z,100840
2023-01-26T02:31:00.416Z,100840
2023-01-26T02:32:00.381Z,100830
2023-01-26T02:33:00.508Z,100830
2023-01-26T02:34:00.446Z,100830
2023-01-26T02:35:00.597Z,100830
2023-01-26T02:36:01.043Z,100830
2023-01-26T02:37:00.486Z,100820
2023-01-26T02:38:00.389Z,100830
2023-01-26T02:39:20.346Z,100820
2023-01-26T02:40:10.147Z,100820
2023-01-26T02:41:04.917Z,100820
2023-01-26T02:42:00.563Z,100820
2023-01-26T02:43:00.389Z,100820
2023-01-26T02:44:02.456Z,100820
2023-01-26T02:45:00.407Z,100810
2023-01-26T02:46:00.578Z,100810
2023-01-26T02:47:00.401Z,100810
2023-01-26T02:48:00.361Z,100810
2023-01-26T02:49:00.416Z,100810
2023-01-26T02:50:00.423Z,100810
2023-01-26T02:51:00.384Z,100810
2023-01-26T02:52:00.429Z,100800
2023-01-26T02:53:01.787Z,100800
2023-01-26T02:54:00.359Z,100800
2023-01-26T02:55:00.450Z,100790
2023-01-26T02:56:01.018Z,100800
2023-01-26T02:57:00.463Z,100790
2023-01-26T02:58:03.115Z,100790
2023-01-26T02:59:00.371Z,100800
2023-01-26T03:00:00.972Z,100790
2023-01-26T03:01:00.556Z,100790
2023-01-26T03:02:00.467Z,100790
2023-01-26T03:03:01.284Z,100790
2023-01-26T03:04:00.414Z,100790
2023-01-26T03:05:00.420Z,100790
2023-01-26T03:06:00.406Z,100790
2023-01-26T03:07:00.428Z,100790
2023-01-26T03:08:00.382Z,100790
2023-01-26T03:09:00.386Z,100790
2023-01-26T03:10:00.404Z,100780
2023-01-26T03:11:00.391Z,100780
2023-01-26T03:12:00.625Z,100780
2023-01-26T03:13:00.474Z,100780
2023-01-26T03:14:00.374Z,100780
2023-01-26T03:15:01.229Z,100770
2023-01-26T03:16:00.430Z,100770
2023-01-26T03:17:00.403Z,100770
2023-01-26T03:18:03.300Z,100770
2023-01-26T03:19:00.423Z,100770
2023-01-26T03:20:00.372Z,100770
2023-01-26T03:21:02.971Z,100770
2023-01-26T03:22:00.729Z,100770
2023-01-26T03:23:00.455Z,100760
2023-01-26T03:24:01.038Z,100760
2023-01-26T03:25:00.401Z,100760
2023-01-26T03:26:00.362Z,100760
2023-01-26T03:27:00.438Z,100760
2023-01-26T03:28:00.366Z,100760
2023-01-26T03:29:00.382Z,100760
2023-01-26T03:30:00.404Z,100760
2023-01-26T03:31:04.497Z,100750
2023-01-26T03:32:00.665Z,100760
2023-01-26T03:33:00.374Z,100750
2023-01-26T03:34:00.361Z,100750
2023-01-26T03:35:00.670Z,100750
2023-01-26T03:36:00.364Z,100750
2023-01-26T03:37:00.463Z,100750
2023-01-26T03:38:00.392Z,100740
2023-01-26T03:39:00.368Z,100740
2023-01-26T03:40:00.409Z,100750
2023-01-26T03:41:00.400Z,100750
2023-01-26T03:42:01.153Z,100740
2023-01-26T03:43:06.224Z,100750
2023-01-26T03:44:00.381Z,100740
2023-01-26T03:45:00.413Z,100740
2023-01-26T03:46:04.360Z,100740
2023-01-26T03:47:00.391Z,100730
2023-01-26T03:48:05.372Z,100730
2023-01-26T03:49:00.389Z,100730
2023-01-26T03:50:00.373Z,100730
2023-01-26T03:51:00.476Z,100730
2023-01-26T03:52:00.413Z,100730
2023-01-26T03:53:00.507Z,100730
2023-01-26T03:54:00.373Z,100730
2023-01-26T03:55:00.370Z,100730
2023-01-26T03:56:00.554Z,100730
2023-01-26T03:57:00.362Z,100730
2023-01-26T03:58:00.425Z,100730
2023-01-26T03:59:02.688Z,100720
2023-01-26T04:00:00.504Z,100730
2023-01-26T04:01:00.428Z,100720
2023-01-26T04:02:00.461Z,100720
2023-01-26T04:03:00.529Z,100720
2023-01-26T04:04:00.483Z,100720
2023-01-26T04:05:00.377Z,100720
2023-01-26T04:06:16.183Z,100720
2023-01-26T04:07:00.388Z,100720
2023-01-26T04:08:02.243Z,100720
2023-01-26T04:09:00.376Z,100720
2023-01-26T04:10:00.525Z,100720
2023-01-26T04:11:00.394Z,100720
2023-01-26T04:12:00.435Z,100720
2023-01-26T04:13:00.511Z,100720
2023-01-26T04:14:00.360Z,100720
2023-01-26T04:15:00.375Z,100720
2023-01-26T04:16:00.406Z,100720
2023-01-26T04:17:02.094Z,100720
2023-01-26T04:18:04.241Z,100720
2023-01-26T04:19:00.355Z,100720
2023-01-26T04:20:00.390Z,100720
2023-01-26T04:21:03.349Z,100720
2023-01-26T04:22:00.449Z,100720
2023-01-26T04:23:00.461Z,100720
2023-01-26T04:24:02.336Z,100720
2023-01-26T04:25:00.390Z,100720
2023-01-26T04:26:00.359Z,100720
2023-01-26T04:27:00.388Z,100720
2023-01-26T04:28:00.377Z,100720
2023-01-26T04:29:01.080Z,100720
2023-01-26T04:30:01.140Z,100720
2023-01-26T04:31:00.380Z,100720
2023-01-26T04:32:00.360Z,100720
2023-01-26T04:33:00.431Z,100720
2023-01-26T04:34:01.445Z,100720
2023-01-26T04:35:00.558Z,100720
2023-01-26T04:36:08.550Z,100720
2023-01-26T04:37:00.362Z,100720
2023-01-26T04:38:00.394Z,100720
2023-01-26T04:39:00.444Z,100720
2023-01-26T04:40:00.845Z,100720
2023-01-26T04:41:00.693Z,100710
2023-01-26T04:42:00.371Z,100710
2023-01-26T04:43:00.386Z,100710
2023-01-26T04:44:00.403Z,100710
2023-01-26T04:45:00.397Z,100710
2023-01-26T04:46:03.246Z,100710
2023-01-26T04:47:00.383Z,100700
2023-01-26T04:48:00.370Z,100700
2023-01-26T04:49:00.386Z,100700
2023-01-26T04:50:00.386Z,100700
2023-01-26T04:51:03.390Z,100700
2023-01-26T04:52:00.409Z,100700
2023-01-26T04:53:00.389Z,100700
2023-01-26T04:54:00.447Z,100700
2023-01-26T04:55:00.425Z,100700
2023-01-26T04:56:00.649Z,100700
2023-01-26T04:57:00.492Z,100690
2023-01-26T04:58:00.718Z,100690
2023-01-26T04:59:03.656Z,100690
2023-01-26T05:00:00.415Z,100690
2023-01-26T05:01:00.416Z,100690
2023-01-26T05:02:00.553Z,100690
2023-01-26T05:03:00.401Z,100690
2023-01-26T05:04:02.458Z,100690
2023-01-26T05:05:00.406Z,100690
2023-01-26T05:06:00.360Z,100690
2023-01-26T05:07:00.396Z,100690
2023-01-26T05:08:00.377Z,100690
2023-01-26T05:09:00.411Z,100690
2023-01-26T05:10:00.401Z,100690
2023-01-26T05:11:00.370Z,100680
2023-01-26T05:12:00.368Z,100680
2023-01-26T05:13:00.618Z,100690
2023-01-26T05:14:00.404Z,100680
2023-01-26T05:15:00.545Z,100680
2023-01-26T05:16:01.761Z,100680
2023-01-26T05:17:01.781Z,100680
2023-01-26T05:18:00.957Z,100680
2023-01-26T05:19:00.378Z,100680
2023-01-26T05:20:00.512Z,100670
2023-01-26T05:21:00.407Z,100680
2023-01-26T05:22:00.374Z,100680
2023-01-26T05:23:00.425Z,100680
2023-01-26T05:24:00.417Z,100680
2023-01-26T05:25:00.376Z,100690
2023-01-26T05:26:00.551Z,100680
2023-01-26T05:27:00.398Z,100680
2023-01-26T05:28:00.644Z,100690
2023-01-26T05:29:00.494Z,100680
2023-01-26T05:30:00.981Z,100680
2023-01-26T05:31:00.449Z,100680
2023-01-26T05:32:00.920Z,100680
2023-01-26T05:33:03.288Z,100680
2023-01-26T05:34:00.380Z,100680
2023-01-26T05:35:00.395Z,100680
2023-01-26T05:36:04.284Z,100680
2023-01-26T05:37:00.381Z,100680
2023-01-26T05:38:00.457Z,100680
2023-01-26T05:39:00.393Z,100680
2023-01-26T05:40:00.456Z,100670
2023-01-26T05:41:00.490Z,100680
2023-01-26T05:42:00.409Z,100680
2023-01-26T05:43:00.377Z,100680
2023-01-26T05:44:00.398Z,100680
2023-01-26T05:45:00.482Z,100680
2023-01-26T05:46:00.418Z,100680
2023-01-26T05:47:00.490Z,100680
2023-01-26T05:48:00.614Z,100680
2023-01-26T05:49:00.373Z,100680
2023-01-26T05:50:00.487Z,100680
2023-01-26T05:51:02.970Z,100680
2023-01-26T05:52:00.416Z,100680
2023-01-26T05:53:00.400Z,100680
2023-01-26T05:54:00.360Z,100680
2023-01-26T05:55:00.601Z,100680
2023-01-26T05:56:00.356Z,100680
2023-01-26T05:57:00.367Z,100680
2023-01-26T05:58:00.453Z,100680
2023-01-26T05:59:00.385Z,100670
2023-01-26T06:00:00.415Z,100670
2023-01-26T06:01:04.021Z,100670
2023-01-26T06:02:00.880Z,100670
2023-01-26T06:03:00.425Z,100670
2023-01-26T06:04:01.034Z,100670
2023-01-26T06:05:00.395Z,100670
2023-01-26T06:06:00.380Z,100670
2023-01-26T06:07:00.430Z,100660
2023-01-26T06:08:00.380Z,100660
2023-01-26T06:09:00.421Z,100660
2023-01-26T06:10:00.384Z,100670
2023-01-26T06:11:00.384Z,100660
2023-01-26T06:12:00.364Z,100660
2023-01-26T06:13:00.530Z,100660
2023-01-26T06:14:00.388Z,100660
2023-01-26T06:15:01.589Z,100660
2023-01-26T06:16:00.615Z,100660
2023-01-26T06:17:00.421Z,100650
2023-01-26T06:18:00.381Z,100650
2023-01-26T06:19:00.441Z,100650
2023-01-26T06:20:00.396Z,100650
2023-01-26T06:21:01.418Z,100650
2023-01-26T06:22:00.569Z,100660
2023-01-26T06:23:00.391Z,100650
2023-01-26T06:24:00.664Z,100660
2023-01-26T06:25:00.978Z,100650
2023-01-26T06:26:00.864Z,100650
2023-01-26T06:27:00.554Z,100650
2023-01-26T06:28:00.357Z,100660
2023-01-26T06:29:00.395Z,100660
2023-01-26T06:30:00.400Z,100660
2023-01-26T06:31:05.652Z,100660
2023-01-26T06:32:00.421Z,100660
2023-01-26T06:33:00.541Z,100660
2023-01-26T06:34:00.381Z,100660
2023-01-26T06:35:00.418Z,100660
2023-01-26T06:36:02.043Z,100660
2023-01-26T06:37:00.401Z,100660
2023-01-26T06:38:00.609Z,100660
2023-01-26T06:39:00.968Z,100660
2023-01-26T06:40:00.415Z,100660
2023-01-26T06:41:01.073Z,100660
2023-01-26T06:42:00.417Z,100660
2023-01-26T06:43:00.397Z,100660
2023-01-26T06:44:00.401Z,100660
2023-01-26T06:45:00.380Z,100660
2023-01-26T06:46:01.797Z,100660
2023-01-26T06:47:00.386Z,100660
2023-01-26T06:48:00.402Z,100660
2023-01-26T06:49:01.375Z,100660
2023-01-26T06:50:00.434Z,100660
2023-01-26T06:51:17.802Z,100660
2023-01-26T06:52:10.328Z,100660
2023-01-26T06:53:13.164Z,100660
2023-01-26T06:54:00.364Z,100660
2023-01-26T06:55:00.695Z,100650
2023-01-26T06:56:00.723Z,100660
2023-01-26T06:57:00.485Z,100660
2023-01-26T06:58:00.386Z,100650
2023-01-26T06:59:00.417Z,100660
2023-01-26T07:00:00.486Z,100660
2023-01-26T07:01:00.641Z,100660
2023-01-26T07:02:00.366Z,100660
2023-01-26T07:03:00.383Z,100670
2023-01-26T07:04:00.496Z,100670
2023-01-26T07:05:00.446Z,100670
2023-01-26T07:06:00.371Z,100670
2023-01-26T07:07:00.381Z,100670
2023-01-26T07:08:00.396Z,100670
2023-01-26T07:09:00.422Z,100670
2023-01-26T07:10:00.470Z,100670
2023-01-26T07:11:00.366Z,100670
2023-01-26T07:12:00.376Z,100670
2023-01-26T07:13:02.748Z,100670
2023-01-26T07:14:00.434Z,100670
2023-01-26T07:15:00.405Z,100670
2023-01-26T07:16:01.784Z,100670
2023-01-26T07:17:00.391Z,100670
2023-01-26T07:18:00.589Z,100670
2023-01-26T07:19:00.435Z,100670
2023-01-26T07:20:00.439Z,100670
2023-01-26T07:21:02.044Z,100670
2023-01-26T07:22:00.930Z,100670
2023-01-26T07:23:00.484Z,100670
2023-01-26T07:24:00.397Z,100670
2023-01-26T07:25:00.412Z,100670
2023-01-26T07:26:00.672Z,100670
2023-01-26T07:27:00.394Z,100670
2023-01-26T07:28:00.429Z,100670
2023-01-26T07:29:00.383Z,100660
2023-01-26T07:30:00.384Z,100670
2023-01-26T07:31:01.231Z,100670
2023-01-26T07:32:00.442Z,100670
2023-01-26T07:33:00.422Z,100660
2023-01-26T07:34:00.380Z,100660
2023-01-26T07:35:00.629Z,100660
2023-01-26T07:36:00.626Z,100660
2023-01-26T07:37:00.384Z,100660
2023-01-26T07:38:02.910Z,100660
2023-01-26T07:39:01.429Z,100660
2023-01-26T07:40:00.490Z,100660
2023-01-26T07:41:04.026Z,100660
2023-01-26T07:42:00.363Z,100650
2023-01-26T07:43:00.470Z,100650
2023-01-26T07:44:00.475Z,100650
2023-01-26T07:45:02.687Z,100650
2023-01-26T07:46:00.639Z,100650
2023-01-26T07:47:00.394Z,100650
2023-01-26T07:48:00.388Z,100660
2023-01-26T07:49:00.374Z,100650
2023-01-26T07:50:01.392Z,100650
2023-01-26T07:51:02.267Z,100650
2023-01-26T07:52:00.392Z,100650
2023-01-26T07:53:00.384Z,100650
2023-01-26T07:54:00.379Z,100660
2023-01-26T07:55:00.360Z,100650
2023-01-26T07:56:11.687Z,100650
2023-01-26T07:57:00.378Z,100660
2023-01-26T07:58:00.583Z,100660
2023-01-26T07:59:02.287Z,100660
2023-01-26T08:00:00.422Z,100660
2023-01-26T08:01:04.441Z,100660
2023-01-26T08:02:00.473Z,100660
2023-01-26T08:03:04.996Z,100660
2023-01-26T08:04:00.378Z,100660
2023-01-26T08:05:00.357Z,100660
2023-01-26T08:06:00.432Z,100660
2023-01-26T08:07:00.532Z,100660
2023-01-26T08:08:00.438Z,100660
2023-01-26T08:09:00.377Z,100660
2023-01-26T08:10:00.412Z,100650
2023-01-26T08:11:01.163Z,100660
2023-01-26T08:12:00.377Z,100660
2023-01-26T08:13:00.638Z,100660
2023-01-26T08:14:00.476Z,100660
2023-01-26T08:15:00.393Z,100660
2023-01-26T08:16:03.765Z,100660
2023-01-26T08:17:00.568Z,100660
2023-01-26T08:18:00.363Z,100660
2023-01-26T08:19:00.395Z,100660
2023-01-26T08:20:00.606Z,100660
2023-01-26T08:21:00.449Z,100660
2023-01-26T08:22:00.380Z,100660
2023-01-26T08:23:00.601Z,100660
2023-01-26T08:24:00.413Z,100660
2023-01-26T08:25:00.449Z,100670
2023-01-26T08:26:03.887Z,100660
2023-01-26T08:27:00.424Z,100660
2023-01-26T08:28:00.391Z,100660
2023-01-26T08:29:00.366Z,100660
2023-01-26T08:30:00.422Z,100660
2023-01-26T08:31:10.278Z,100660
2023-01-26T08:32:00.496Z,100660
2023-01-26T08:33:00.385Z,100660
2023-01-26T08:34:00.382Z,100660
2023-01-26T08:35:00.389Z,100660
2023-01-26T08:36:01.302Z,100660
2023-01-26T08:37:00.549Z,100660
2023-01-26T08:38:00.598Z,100660
2023-01-26T08:39:00.363Z,100660
2023-01-26T08:40:00.390Z,100660
2023-01-26T08:41:01.731Z,100650
2023-01-26T08:42:00.377Z,100660
2023-01-26T08:43:00.944Z,100650
2023-01-26T08:44:00.409Z,100650
2023-01-26T08:45:00.382Z,100660
2023-01-26T08:46:00.833Z,100660
2023-01-26T08:47:00.387Z,100650
2023-01-26T08:48:00.400Z,100650
2023-01-26T08:49:00.640Z,100660
2023-01-26T08:50:00.385Z,100660
2023-01-26T08:51:02.642Z,100660
2023-01-26T08:52:00.367Z,100650
2023-01-26T08:53:00.381Z,100660
2023-01-26T08:54:00.511Z,100660
2023-01-26T08:55:01.615Z,100660
2023-01-26T08:56:02.196Z,100660
2023-01-26T08:57:00.377Z,100660
2023-01-26T08:58:00.493Z,100660
2023-01-26T08:59:00.468Z,100660
2023-01-26T09:00:00.574Z,100660
2023-01-26T09:01:04.818Z,100660
2023-01-26T09:02:00.501Z,100660
2023-01-26T09:03:02.960Z,100660
2023-01-26T09:04:00.379Z,100660
2023-01-26T09:05:00.383Z,100670
2023-01-26T09:06:01.782Z,100670
2023-01-26T09:07:00.589Z,100670
2023-01-26T09:08:00.567Z,100670
2023-01-26T09:09:00.356Z,100670
2023-01-26T09:10:00.363Z,100660
2023-01-26T09:11:00.713Z,100660
2023-01-26T09:12:00.393Z,100670
2023-01-26T09:13:00.376Z,100670
2023-01-26T09:14:00.407Z,100670
2023-01-26T09:15:00.427Z,100670
2023-01-26T09:16:05.959Z,100670
2023-01-26T09:17:00.367Z,100670
2023-01-26T09:18:01.174Z,100670
2023-01-26T09:19:01.309Z,100670
2023-01-26T09:20:00.395Z,100660
2023-01-26T09:21:02.914Z,100670
2023-01-26T09:22:00.374Z,100660
2023-01-26T09:23:00.376Z,100660
2023-01-26T09:24:00.466Z,100660
2023-01-26T09:25:00.363Z,100650
2023-01-26T09:26:01.402Z,100650
2023-01-26T09:27:00.366Z,100660
2023-01-26T09:28:02.480Z,100660
2023-01-26T09:29:00.392Z,100660
2023-01-26T09:30:01.215Z,100650
2023-01-26T09:31:03.889Z,100660
2023-01-26T09:32:00.488Z,100660
2023-01-26T09:33:02.663Z,100650
2023-01-26T09:34:00.403Z,100650
2023-01-26T09:35:00.446Z,100650
2023-01-26T09:36:06.215Z,100650
2023-01-26T09:37:00.427Z,100650
2023-01-26T09:38:00.399Z,100650
2023-01-26T09:39:00.379Z,100650
2023-01-26T09:40:00.392Z,100650
2023-01-26T09:41:16.502Z,100640
2023-01-26T09:42:13.595Z,100650
2023-01-26T09:43:15.675Z,100640
2023-01-26T09:44:05.440Z,100640
2023-01-26T09:45:12.711Z,100640
2023-01-26T09:46:14.628Z,100640
2023-01-26T09:47:08.852Z,100640
2023-01-26T09:48:18.398Z,100640
2023-01-26T09:49:20.308Z,100640
2023-01-26T09:50:07.729Z,100640
2023-01-26T09:51:09.497Z,100640
2023-01-26T09:52:17.368Z,100640
2023-01-26T09:53:10.318Z,100640
2023-01-26T09:54:14.511Z,100640
2023-01-26T09:55:04.733Z,100640
2023-01-26T09:56:00.388Z,100640
2023-01-26T09:57:09.424Z,100640
2023-01-26T09:58:10.344Z,100640
2023-01-26T09:59:10.331Z,100640
2023-01-26T10:00:06.492Z,100630
2023-01-26T10:01:02.815Z,100630
2023-01-26T10:02:10.335Z,100630
2023-01-26T10:03:10.323Z,100630
2023-01-26T10:04:17.773Z,100630
2023-01-26T10:05:12.219Z,100630
2023-01-26T10:06:10.320Z,100630
2023-01-26T10:07:03.187Z,100620
2023-01-26T10:08:01.785Z,100630
2023-01-26T10:09:06.652Z,100620
2023-01-26T10:10:01.565Z,100620
2023-01-26T10:11:10.646Z,100620
2023-01-26T10:12:05.759Z,100620
2023-01-26T10:13:01.598Z,100620
2023-01-26T10:14:09.631Z,100620
2023-01-26T10:15:06.841Z,100620
2023-01-26T10:16:05.490Z,100620
2023-01-26T10:17:03.983Z,100630
2023-01-26T10:18:06.018Z,100620
2023-01-26T10:19:06.361Z,100630
2023-01-26T10:20:06.790Z,100630
2023-01-26T10:21:03.739Z,100620
2023-01-26T10:22:06.850Z,100630
2023-01-26T10:23:05.593Z,100620
2023-01-26T10:24:01.300Z,100610
2023-01-26T10:25:00.573Z,100620
2023-01-26T10:26:12.670Z,100620
2023-01-26T10:27:00.368Z,100620
2023-01-26T10:28:11.359Z,100620
2023-01-26T10:29:00.742Z,100620
2023-01-26T10:30:00.389Z,100620
2023-01-26T10:31:03.284Z,100620
2023-01-26T10:32:03.524Z,100610
2023-01-26T10:33:00.399Z,100610
2023-01-26T10:34:12.919Z,100610
2023-01-26T10:35:00.381Z,100610
2023-01-26T10:36:02.781Z,100610
2023-01-26T10:37:18.161Z,100610
2023-01-26T10:38:00.377Z,100610
2023-01-26T10:39:09.985Z,100620
2023-01-26T10:40:03.666Z,100610
2023-01-26T10:41:03.172Z,100610
2023-01-26T10:42:02.332Z,100610
2023-01-26T10:43:00.477Z,100610
2023-01-26T10:44:03.377Z,100610
2023-01-26T10:45:03.480Z,100610
2023-01-26T10:46:02.676Z,100610
2023-01-26T10:47:02.914Z,100610
2023-01-26T10:48:16.263Z,100610
2023-01-26T10:49:12.046Z,100610
2023-01-26T10:50:20.286Z,100610
2023-01-26T10:51:14.750Z,100620
2023-01-26T10:52:05.455Z,100610
2023-01-26T10:53:02.815Z,100620
2023-01-26T10:54:12.712Z,100620
2023-01-26T10:55:11.390Z,100610
2023-01-26T10:56:03.185Z,100610
2023-01-26T10:57:03.890Z,100620
2023-01-26T10:58:00.525Z,100610
2023-01-26T10:59:00.984Z,100610
2023-01-26T11:00:04.615Z,100610
2023-01-26T11:01:00.419Z,100610
2023-01-26T11:02:10.350Z,100610
2023-01-26T11:03:04.326Z,100610
2023-01-26T11:04:05.218Z,100610
2023-01-26T11:05:03.144Z,100610
2023-01-26T11:06:13.561Z,100610
2023-01-26T11:07:20.263Z,100610
2023-01-26T11:08:00.603Z,100610
2023-01-26T11:09:10.848Z,100610
2023-01-26T11:10:20.292Z,100610
2023-01-26T11:11:01.594Z,100610
2023-01-26T11:12:02.817Z,100600
2023-01-26T11:13:18.755Z,100600
2023-01-26T11:14:18.233Z,100600
2023-01-26T11:15:05.142Z,100600
2023-01-26T11:16:16.105Z,100600
2023-01-26T11:17:11.288Z,100600
2023-01-26T11:18:10.252Z,100600
2023-01-26T11:19:12.654Z,100590
2023-01-26T11:20:11.275Z,100590
2023-01-26T11:21:16.936Z,100590
2023-01-26T11:22:05.950Z,100590
2023-01-26T11:23:10.257Z,100590
2023-01-26T11:24:13.077Z,100590
2023-01-26T11:25:14.301Z,100590
2023-01-26T11:26:02.333Z,100580
2023-01-26T11:27:10.211Z,100580
2023-01-26T11:28:10.233Z,100570
2023-01-26T11:29:10.235Z,100570
2023-01-26T11:30:11.948Z,100570
2023-01-26T11:31:10.334Z,100580
2023-01-26T11:32:00.259Z,100570
2023-01-26T11:33:17.506Z,100570
2023-01-26T11:34:13.474Z,100570
2023-01-26T11:35:20.191Z,100570
2023-01-26T11:36:15.305Z,100570
2023-01-26T11:37:20.165Z,100570
2023-01-26T11:38:10.845Z,100570
2023-01-26T11:39:11.271Z,100570
2023-01-26T11:40:10.679Z,100570
2023-01-26T11:41:13.553Z,100570
2023-01-26T11:42:18.787Z,100570
2023-01-26T11:43:20.240Z,100570
2023-01-26T11:44:09.541Z,100570
2023-01-26T11:45:04.580Z,100570
2023-01-26T11:46:13.772Z,100570
2023-01-26T11:47:09.433Z,100570
2023-01-26T11:48:19.221Z,100570
2023-01-26T11:49:11.303Z,100570
2023-01-26T11:50:20.267Z,100560
2023-01-26T11:51:13.863Z,100560
2023-01-26T11:52:13.834Z,100560
2023-01-26T11:53:20.286Z,100560
2023-01-26T11:54:12.886Z,100560
2023-01-26T11:55:10.495Z,100560
2023-01-26T11:56:14.788Z,100560
2023-01-26T11:57:13.312Z,100560
2023-01-26T11:58:17.784Z,100550
2023-01-26T11:59:08.325Z,100550
2023-01-26T12:00:17.768Z,100560
2023-01-26T12:01:08.386Z,100550
2023-01-26T12:02:13.209Z,100550
2023-01-26T12:03:10.716Z,100550
2023-01-26T12:04:00.410Z,100550
2023-01-26T12:05:10.866Z,100550
2023-01-26T12:06:05.065Z,100540
2023-01-26T12:07:13.806Z,100540
2023-01-26T12:08:09.545Z,100540
2023-01-26T12:09:04.517Z,100540
2023-01-26T12:10:03.661Z,100540
2023-01-26T12:11:07.785Z,100540
2023-01-26T12:12:09.451Z,100540
2023-01-26T12:13:10.579Z,100540
2023-01-26T12:14:10.569Z,100540
2023-01-26T12:15:08.432Z,100540
2023-01-26T12:16:06.230Z,100540
2023-01-26T12:17:19.068Z,100540
2023-01-26T12:18:10.510Z,100540
2023-01-26T12:19:14.169Z,100530
2023-01-26T12:20:21.358Z,100530
2023-01-26T12:21:07.959Z,100530
2023-01-26T12:22:09.778Z,100540
2023-01-26T12:23:08.407Z,100530
2023-01-26T12:24:02.821Z,100530
2023-01-26T12:25:18.954Z,100530
2023-01-26T12:26:13.169Z,100530
2023-01-26T12:27:04.069Z,100530
2023-01-26T12:28:20.281Z,100530